Time;durP1;ratioP1;P1;durP2;ratioP2;P2;SDS_P1;SDS_P2;PMS_P1;PMS_P2;Temp;Humidity;BMP_temperature;BMP_pressure;BME280_temperature;BME280_humidity;BME280_pressure;Samples;Min_cycle;Max_cycle;Signal;HPM_P1;HPM_P2
2022/12/05 00:01:51;;;;;;;;;;;;;;;7.72;100.00;100625.78;5058097;28;19921;-78
2022/12/05 00:04:16;;;;;;;;;;;;;;;7.70;100.00;100629.56;5058277;28;19951;-79
2022/12/05 00:06:43;;;;;;;;;;;;;;;7.58;100.00;100634.16;5075943;28;20289;-80
2022/12/05 00:09:10;;;;;;;;;;;;;;;7.59;100.00;100635.81;5076259;28;19928;-78
2022/12/05 00:11:38;;;;;;;;;;;;;;;7.79;100.00;100632.19;5075866;28;19920;-78
2022/12/05 00:14:04;;;;;;;;;;;;;;;7.78;100.00;100625.25;5075143;28;19933;-78
2022/12/05 00:16:31;;;;;;;;;;;;;;;7.90;100.00;100625.06;5076243;28;19917;-77
2022/12/05 00:18:58;;;;;;;;;;;;;;;7.77;100.00;100628.84;5076073;28;19928;-80
2022/12/05 00:21:26;;;;;;;;;;;;;;;7.75;100.00;100624.72;5077177;28;20016;-78
2022/12/05 00:23:52;;;;;;;;;;;;;;;7.87;100.00;100628.00;5079829;28;19925;-78
2022/12/05 00:26:18;;;;;;;;;;;;;;;7.80;100.00;100619.81;5091730;28;19924;-77
2022/12/05 00:28:46;;;;;;;;;;;;;;;7.78;100.00;100624.41;5068717;28;19947;-79
2022/12/05 00:31:21;;;;;;;;;;;;;;;7.73;100.00;100618.72;5061850;28;20335;-80
2022/12/05 00:33:47;;;;;;;;;;;;;;;7.82;100.00;100626.63;5087946;28;19939;-82
2022/12/05 00:36:15;;;;;;;;;;;;;;;7.67;100.00;100625.41;5083891;28;19921;-80
2022/12/05 00:38:41;;;;;;;;;;;;;;;7.62;100.00;100619.69;5076490;28;19923;-83
2022/12/05 00:41:12;;;;;;;;;;;;;;;7.69;100.00;100614.69;5075543;28;19920;-80
2022/12/05 00:43:37;;;;;;;;;;;;;;;7.83;100.00;100614.25;5075437;28;20030;-79
2022/12/05 00:46:07;;;;;;;;;;;;;;;7.76;100.00;100610.53;5075797;28;19979;-80
2022/12/05 00:48:32;;;;;;;;;;;;;;;7.79;100.00;100612.88;5075321;28;19921;-79
2022/12/05 00:51:04;;;;;;;;;;;;;;;7.84;100.00;100615.09;5057552;28;20300;-79
2022/12/05 00:53:29;;;;;;;;;;;;;;;7.71;100.00;100608.31;5075212;28;19952;-80
2022/12/05 00:55:55;;;;;;;;;;;;;;;7.75;100.00;100620.28;5074866;28;20025;-78
2022/12/05 00:58:20;;;;;;;;;;;;;;;7.77;100.00;100617.47;5075044;28;19917;-80
2022/12/05 01:00:46;;;;;;;;;;;;;;;7.95;100.00;100617.56;5074908;28;19943;-80
2022/12/05 01:03:11;;;;;;;;;;;;;;;7.77;100.00;100623.59;5074906;28;20061;-80
2022/12/05 01:05:36;;;;;;;;;;;;;;;7.87;100.00;100626.19;5074648;28;19960;-79
2022/12/05 01:08:02;;;;;;;;;;;;;;;7.76;100.00;100621.91;5056738;28;19928;-78
2022/12/05 01:10:27;;;;;;;;;;;;;;;7.70;100.00;100621.66;5074879;28;20327;-81
2022/12/05 01:12:52;;;;;;;;;;;;;;;7.70;100.00;100622.47;5074478;28;19920;-79
2022/12/05 01:15:18;;;;;;;;;;;;;;;7.75;100.00;100625.53;5074407;28;19921;-78
2022/12/05 01:17:43;;;;;;;;;;;;;;;7.68;100.00;100629.72;5074554;28;19920;-79
2022/12/05 01:20:09;;;;;;;;;;;;;;;7.73;100.00;100626.63;5074829;28;19946;-78
2022/12/05 01:22:34;;;;;;;;;;;;;;;7.74;100.00;100617.75;5074354;28;20007;-79
2022/12/05 01:25:00;;;;;;;;;;;;;;;7.77;100.00;100618.31;5055625;28;20435;-80
2022/12/05 01:27:25;;;;;;;;;;;;;;;7.69;100.00;100623.44;5074591;28;19974;-80
2022/12/05 01:29:50;;;;;;;;;;;;;;;7.58;100.00;100628.88;5074975;28;19932;-79
2022/12/05 01:32:16;;;;;;;;;;;;;;;7.75;100.00;100630.81;5074335;28;19939;-79
2022/12/05 01:34:41;;;;;;;;;;;;;;;7.64;100.00;100623.06;5074365;28;20289;-80
2022/12/05 01:37:07;;;;;;;;;;;;;;;7.72;100.00;100617.88;5074440;28;20436;-81
2022/12/05 01:39:32;;;;;;;;;;;;;;;7.69;100.00;100615.53;5084814;28;19920;-79
2022/12/05 01:41:58;;;;;;;;;;;;;;;7.64;100.00;100617.78;5090682;28;19921;-80
2022/12/05 01:44:23;;;;;;;;;;;;;;;7.66;100.00;100614.97;5073963;28;19970;-80
2022/12/05 01:46:50;;;;;;;;;;;;;;;7.73;100.00;100616.91;5092096;28;19952;-78
2022/12/05 01:49:21;;;;;;;;;;;;;;;7.74;100.00;100618.59;5092489;28;19928;-79
2022/12/05 01:51:56;;;;;;;;;;;;;;;7.64;100.00;100611.66;5093058;28;19920;-77
2022/12/05 01:54:22;;;;;;;;;;;;;;;7.67;100.00;100619.28;5092489;28;19921;-80
2022/12/05 01:56:52;;;;;;;;;;;;;;;7.65;100.00;100615.97;5085565;28;20278;-79
2022/12/05 01:59:19;;;;;;;;;;;;;;;7.74;100.00;100623.88;5077998;28;19920;-78
2022/12/05 02:01:44;;;;;;;;;;;;;;;7.60;100.00;100615.53;5076444;28;19920;-80
2022/12/05 02:04:10;;;;;;;;;;;;;;;7.71;100.00;100623.31;5075214;28;19932;-79
2022/12/05 02:06:35;;;;;;;;;;;;;;;7.61;100.00;100623.34;5074611;28;19916;-80
2022/12/05 02:09:01;;;;;;;;;;;;;;;7.63;100.00;100626.66;5074021;28;20357;-81
2022/12/05 02:11:28;;;;;;;;;;;;;;;7.53;100.00;100628.47;5073991;28;20301;-78
2022/12/05 02:14:09;;;;;;;;;;;;;;;7.61;100.00;100618.06;5073962;28;19927;-79
2022/12/05 02:16:54;;;;;;;;;;;;;;;7.79;100.00;100619.00;5073869;28;19920;-80
2022/12/05 02:19:28;;;;;;;;;;;;;;;7.67;100.00;100622.75;5055504;28;19928;-79
2022/12/05 02:22:12;;;;;;;;;;;;;;;7.78;100.00;100614.69;5073293;28;20015;-78
2022/12/05 02:24:56;;;;;;;;;;;;;;;7.65;100.00;100603.63;5073482;28;20396;-83
2022/12/05 02:27:30;;;;;;;;;;;;;;;7.65;100.00;100594.88;5073338;28;19924;-79
2022/12/05 02:29:59;;;;;;;;;;;;;;;7.86;100.00;100574.41;5073584;28;19920;-79
2022/12/05 02:32:40;;;;;;;;;;;;;;;7.92;100.00;100583.56;5074834;28;19917;-78
2022/12/05 02:35:09;;;;;;;;;;;;;;;7.71;100.00;100579.31;5081349;28;19972;-79
2022/12/05 02:38:00;;;;;;;;;;;;;;;7.76;100.00;100590.25;5091495;28;19931;-79
2022/12/05 02:40:31;;;;;;;;;;;;;;;7.57;100.00;100595.56;5089982;28;19995;-81
2022/12/05 02:43:12;;;;;;;;;;;;;;;7.55;100.00;100594.88;5074315;28;19921;-80
2022/12/05 02:45:38;;;;;;;;;;;;;;;7.66;100.00;100589.44;5073343;28;19927;-81
2022/12/05 02:48:05;;;;;;;;;;;;;;;7.61;100.00;100593.47;5072925;28;19931;-79
2022/12/05 02:50:33;;;;;;;;;;;;;;;7.71;100.00;100584.59;5073121;28;19916;-79
2022/12/05 02:53:02;;;;;;;;;;;;;;;7.54;100.00;100595.84;5072735;28;20369;-78
2022/12/05 02:55:29;;;;;;;;;;;;;;;7.69;100.00;100589.16;5073017;28;20402;-81
2022/12/05 02:57:56;;;;;;;;;;;;;;;7.75;100.00;100595.69;5072813;28;19967;-80
2022/12/05 03:00:22;;;;;;;;;;;;;;;7.87;100.00;100591.06;5073254;28;19927;-79
2022/12/05 03:02:49;;;;;;;;;;;;;;;7.69;100.00;100593.59;5072958;28;19916;-78
2022/12/05 03:05:15;;;;;;;;;;;;;;;7.77;100.00;100591.94;5073201;28;20325;-79
2022/12/05 03:07:43;;;;;;;;;;;;;;;7.84;100.00;100594.00;5073262;28;19992;-79
2022/12/05 03:10:09;;;;;;;;;;;;;;;7.68;100.00;100600.69;5074692;28;20016;-79
2022/12/05 03:12:41;;;;;;;;;;;;;;;8.06;100.00;100593.63;5077951;28;19923;-79
2022/12/05 03:15:15;;;;;;;;;;;;;;;7.99;100.00;100589.91;5091984;28;19920;-80
2022/12/05 03:17:44;;;;;;;;;;;;;;;8.05;100.00;100586.72;5066442;28;19935;-78
2022/12/05 03:20:09;;;;;;;;;;;;;;;7.96;100.00;100579.63;5073507;28;19947;-80
2022/12/05 03:22:55;;;;;;;;;;;;;;;7.87;100.00;100575.22;5073540;28;19942;-79
2022/12/05 03:25:23;;;;;;;;;;;;;;;7.78;100.00;100575.13;5058542;28;20369;-79
2022/12/05 03:27:57;;;;;;;;;;;;;;;7.97;100.00;100586.59;5073147;28;19947;-80
2022/12/05 03:30:23;;;;;;;;;;;;;;;7.90;100.00;100574.94;5072940;28;19924;-78
2022/12/05 03:32:54;;;;;;;;;;;;;;;7.80;100.00;100575.81;5072516;28;20285;-78
2022/12/05 03:35:26;;;;;;;;;;;;;;;8.02;100.00;100581.72;5072761;28;19916;-80
2022/12/05 03:38:12;;;;;;;;;;;;;;;8.01;100.00;100580.06;5054488;28;20003;-80
2022/12/05 03:40:41;;;;;;;;;;;;;;;7.72;100.00;100578.31;5072477;28;19927;-80
2022/12/05 03:43:12;;;;;;;;;;;;;;;7.82;100.00;100584.41;5072513;28;20062;-77
2022/12/05 03:45:45;;;;;;;;;;;;;;;7.75;100.00;100583.34;5072722;28;19942;-79
2022/12/05 03:48:25;;;;;;;;;;;;;;;7.82;100.00;100577.47;5055457;28;20035;-80
2022/12/05 03:50:52;;;;;;;;;;;;;;;7.82;100.00;100581.75;5075827;28;19916;-80
2022/12/05 03:53:44;;;;;;;;;;;;;;;7.80;100.00;100585.53;5075932;28;19982;-77
2022/12/05 03:56:13;;;;;;;;;;;;;;;7.64;100.00;100583.47;5071780;28;20033;-80
2022/12/05 03:58:42;;;;;;;;;;;;;;;7.77;100.00;100581.38;5078560;28;19926;-80
2022/12/05 04:01:09;;;;;;;;;;;;;;;7.91;100.00;100592.44;5079000;28;19920;-81
2022/12/05 04:03:38;;;;;;;;;;;;;;;7.66;100.00;100578.88;5079046;28;19926;-78
2022/12/05 04:06:08;;;;;;;;;;;;;;;7.64;100.00;100587.91;5078423;28;20025;-79
2022/12/05 04:08:37;;;;;;;;;;;;;;;7.58;100.00;100584.06;5076806;28;20400;-80
2022/12/05 04:11:06;;;;;;;;;;;;;;;7.54;100.00;100589.75;5075762;28;19925;-78
2022/12/05 04:13:40;;;;;;;;;;;;;;;7.60;100.00;100583.91;5075955;28;19920;-79
2022/12/05 04:18:59;;;;;;;;;;;;;;;7.43;100.00;100596.00;5075852;28;19944;-79
2022/12/05 04:21:38;;;;;;;;;;;;;;;7.42;100.00;100588.25;5075883;28;19921;-80
2022/12/05 04:27:14;;;;;;;;;;;;;;;7.46;100.00;100598.34;5075611;28;19932;-80
2022/12/05 04:30:02;;;;;;;;;;;;;;;7.40;100.00;100598.91;5075860;28;20015;-79
2022/12/05 04:32:32;;;;;;;;;;;;;;;7.36;100.00;100600.16;5065212;28;21081;-78
2022/12/05 04:35:00;;;;;;;;;;;;;;;7.44;100.00;100600.31;5075591;28;20380;-79
2022/12/05 04:37:31;;;;;;;;;;;;;;;7.38;100.00;100597.41;5075680;28;19920;-80
2022/12/05 04:40:01;;;;;;;;;;;;;;;7.37;100.00;100601.00;5075908;28;19921;-79
2022/12/05 04:42:29;;;;;;;;;;;;;;;7.47;100.00;100601.81;5075874;28;19940;-80
2022/12/05 04:44:57;;;;;;;;;;;;;;;7.56;100.00;100596.53;5075533;28;20426;-79
2022/12/05 04:47:25;;;;;;;;;;;;;;;7.33;100.00;100597.81;5075618;28;19927;-79
2022/12/05 04:49:52;;;;;;;;;;;;;;;7.33;100.00;100597.81;5082076;28;19924;-79
2022/12/05 04:52:17;;;;;;;;;;;;;;;7.39;100.00;100591.97;5075398;28;19920;-80
2022/12/05 04:54:52;;;;;;;;;;;;;;;7.45;100.00;100594.06;5075310;28;20011;-81
2022/12/05 04:57:20;;;;;;;;;;;;;;;7.36;100.00;100592.25;5075956;28;19925;-79
2022/12/05 04:59:45;;;;;;;;;;;;;;;7.39;100.00;100585.88;5075658;28;20435;-82
2022/12/05 05:02:13;;;;;;;;;;;;;;;7.45;100.00;100588.78;5075762;28;19925;-80
2022/12/05 05:04:41;;;;;;;;;;;;;;;7.39;100.00;100580.63;5075599;28;19928;-79
2022/12/05 05:07:08;;;;;;;;;;;;;;;7.26;100.00;100580.88;5081796;28;19927;-81
2022/12/05 05:09:33;;;;;;;;;;;;;;;7.36;100.00;100586.97;5096383;28;20007;-79
2022/12/05 05:11:59;;;;;;;;;;;;;;;7.37;100.00;100585.19;5095902;28;19963;-80
2022/12/05 05:14:24;;;;;;;;;;;;;;;7.27;100.00;100593.09;5096195;28;19943;-79
2022/12/05 05:16:49;;;;;;;;;;;;;;;7.20;100.00;100586.72;5096930;28;19939;-78
2022/12/05 05:19:15;;;;;;;;;;;;;;;7.27;100.00;100603.63;5096166;28;20007;-79
2022/12/05 05:21:41;;;;;;;;;;;;;;;7.37;100.00;100593.91;5097857;28;20368;-80
2022/12/05 05:24:08;;;;;;;;;;;;;;;7.43;100.00;100595.16;5099581;28;19928;-78
2022/12/05 05:26:34;;;;;;;;;;;;;;;7.39;100.00;100602.50;5104144;28;20339;-79
2022/12/05 05:29:00;;;;;;;;;;;;;;;7.42;100.00;100591.72;5098066;28;19959;-79
2022/12/05 05:31:25;;;;;;;;;;;;;;;7.35;100.00;100590.59;5100064;28;20391;-79
2022/12/05 05:33:52;;;;;;;;;;;;;;;7.38;100.00;100597.41;5101720;28;20429;-79
2022/12/05 05:36:17;;;;;;;;;;;;;;;7.38;100.00;100600.03;5082288;28;20014;-78
2022/12/05 05:38:44;;;;;;;;;;;;;;;7.38;100.00;100598.22;5081973;28;20423;-79
2022/12/05 05:41:14;;;;;;;;;;;;;;;7.49;100.00;100603.34;5104281;28;19920;-79
2022/12/05 05:43:40;;;;;;;;;;;;;;;7.32;100.00;100601.44;5090692;28;19956;-79
2022/12/05 05:46:05;;;;;;;;;;;;;;;7.39;100.00;100607.78;5112496;28;19974;-78
2022/12/05 05:48:33;;;;;;;;;;;;;;;7.44;100.00;100615.28;5113268;28;19963;-79
2022/12/05 05:50:59;;;;;;;;;;;;;;;7.29;100.00;100614.91;5096978;28;19910;-79
2022/12/05 05:53:25;;;;;;;;;;;;;;;7.33;100.00;100612.78;5113843;28;19931;-81
2022/12/05 05:55:52;;;;;;;;;;;;;;;7.44;100.00;100613.50;5095247;28;19970;-79
2022/12/05 05:58:17;;;;;;;;;;;;;;;7.26;100.00;100621.25;5112257;28;19916;-81
2022/12/05 06:00:42;;;;;;;;;;;;;;;7.25;100.00;100626.69;5085568;28;20385;-81
2022/12/05 06:03:08;;;;;;;;;;;;;;;7.21;100.00;100626.13;5109629;28;19985;-80
2022/12/05 06:05:33;;;;;;;;;;;;;;;7.23;100.00;100634.72;5108244;28;19920;-82
2022/12/05 06:07:59;;;;;;;;;;;;;;;7.26;100.00;100636.22;5090838;28;19920;-79
2022/12/05 06:10:24;;;;;;;;;;;;;;;7.31;100.00;100630.56;5102638;28;20384;-78
2022/12/05 06:12:49;;;;;;;;;;;;;;;7.44;100.00;100625.84;5095066;28;19927;-80
2022/12/05 06:15:15;;;;;;;;;;;;;;;7.43;100.00;100619.72;5093287;28;19973;-80
2022/12/05 06:17:40;;;;;;;;;;;;;;;7.32;100.00;100624.31;5094678;28;19935;-79
2022/12/05 06:20:07;;;;;;;;;;;;;;;7.40;100.00;100622.63;5094288;28;19916;-80
2022/12/05 06:22:32;;;;;;;;;;;;;;;7.46;100.00;100619.44;5095195;28;20341;-79
2022/12/05 06:24:58;;;;;;;;;;;;;;;7.50;100.00;100625.28;5094080;28;20001;-81
2022/12/05 06:27:23;;;;;;;;;;;;;;;7.60;100.00;100629.56;5075943;28;20054;-80
2022/12/05 06:29:49;;;;;;;;;;;;;;;7.57;100.00;100627.22;5094271;28;19951;-80
2022/12/05 06:32:14;;;;;;;;;;;;;;;7.45;100.00;100617.78;5094172;28;19920;-81
2022/12/05 06:34:42;;;;;;;;;;;;;;;7.45;100.00;100623.06;5094210;28;20270;-82
2022/12/05 06:37:08;;;;;;;;;;;;;;;7.42;100.00;100630.44;5094378;28;19927;-81
2022/12/05 06:39:33;;;;;;;;;;;;;;;7.55;100.00;100623.06;5094297;28;19931;-79
2022/12/05 06:42:00;;;;;;;;;;;;;;;7.50;100.00;100614.72;5093463;28;19967;-82
2022/12/05 06:44:25;;;;;;;;;;;;;;;7.64;100.00;100636.25;5076209;28;19927;-81
2022/12/05 06:46:54;;;;;;;;;;;;;;;7.56;100.00;100638.72;5076737;28;20007;-85
2022/12/05 06:49:20;;;;;;;;;;;;;;;7.67;100.00;100637.75;5094582;28;19923;-84
2022/12/05 06:51:45;;;;;;;;;;;;;;;7.62;100.00;100640.81;5076441;28;19921;-84
2022/12/05 06:54:11;;;;;;;;;;;;;;;7.55;100.00;100629.19;5054305;28;20044;-81
2022/12/05 06:56:37;;;;;;;;;;;;;;;7.51;100.00;100640.97;5072565;28;19931;-81
2022/12/05 06:59:02;;;;;;;;;;;;;;;7.51;100.00;100640.97;5074050;28;19917;-83
2022/12/05 07:01:37;;;;;;;;;;;;;;;7.61;100.00;100636.53;5039164;28;19917;-83
2022/12/05 07:04:03;;;;;;;;;;;;;;;7.63;100.00;100637.19;5073869;28;19927;-86
2022/12/05 07:06:29;;;;;;;;;;;;;;;7.60;100.00;100650.66;5073214;28;19921;-82
2022/12/05 07:08:55;;;;;;;;;;;;;;;7.58;100.00;100650.00;5073620;28;19923;-83
2022/12/05 07:11:20;;;;;;;;;;;;;;;7.60;100.00;100663.84;5073423;28;20415;-84
2022/12/05 07:13:46;;;;;;;;;;;;;;;7.51;100.00;100654.16;5055266;28;19942;-84
2022/12/05 07:16:11;;;;;;;;;;;;;;;7.54;100.00;100658.31;5073708;28;19920;-83
2022/12/05 07:18:36;;;;;;;;;;;;;;;7.63;100.00;100653.03;5073177;28;20431;-83
2022/12/05 07:21:05;;;;;;;;;;;;;;;7.63;100.00;100655.66;5073319;28;19920;-80
2022/12/05 07:23:31;;;;;;;;;;;;;;;7.59;100.00;100667.47;5058643;28;19956;-82
2022/12/05 07:25:56;;;;;;;;;;;;;;;7.93;100.00;100664.38;5082296;28;19928;-83
2022/12/05 07:28:22;;;;;;;;;;;;;;;7.90;100.00;100664.66;5076169;28;20061;-81
2022/12/05 07:30:47;;;;;;;;;;;;;;;7.79;100.00;100671.75;5076858;28;19927;-81
2022/12/05 07:33:13;;;;;;;;;;;;;;;7.93;100.00;100664.38;5076923;28;20125;-81
2022/12/05 07:35:38;;;;;;;;;;;;;;;7.97;100.00;100652.56;5059192;28;19940;-82
2022/12/05 07:38:06;;;;;;;;;;;;;;;7.95;100.00;100651.88;5076211;28;19921;-81
2022/12/05 07:40:32;;;;;;;;;;;;;;;7.86;100.00;100661.47;5074693;28;19927;-82
2022/12/05 07:42:57;;;;;;;;;;;;;;;7.79;100.00;100663.84;5078272;28;20368;-84
2022/12/05 07:45:22;;;;;;;;;;;;;;;7.70;100.00;100662.03;5077116;28;19920;-83
2022/12/05 07:47:48;;;;;;;;;;;;;;;7.64;100.00;100662.63;5076828;28;20377;-82
2022/12/05 07:50:14;;;;;;;;;;;;;;;7.78;100.00;100671.91;5059903;28;19970;-84
2022/12/05 07:52:39;;;;;;;;;;;;;;;7.77;100.00;100670.22;5079075;28;19924;-82
2022/12/05 07:55:05;;;;;;;;;;;;;;;7.99;100.00;100669.06;5059952;28;19931;-83
2022/12/05 07:57:30;;;;;;;;;;;;;;;7.99;100.00;100669.06;5078291;28;19920;-82
2022/12/05 07:59:56;;;;;;;;;;;;;;;8.03;100.00;100671.31;5077979;28;19920;-82
2022/12/05 08:02:21;;;;;;;;;;;;;;;7.87;100.00;100681.63;5077773;28;19942;-81
2022/12/05 08:04:47;;;;;;;;;;;;;;;7.74;100.00;100676.63;5059047;28;19927;-82
2022/12/05 08:07:12;;;;;;;;;;;;;;;7.77;100.00;100671.06;5076724;28;19920;-83
2022/12/05 08:09:37;;;;;;;;;;;;;;;7.70;100.00;100675.25;5076217;28;19917;-82
2022/12/05 08:12:03;;;;;;;;;;;;;;;7.73;100.00;100674.97;5076004;28;19926;-86
2022/12/05 08:14:28;;;;;;;;;;;;;;;7.64;100.00;100667.88;5075950;28;20427;-82
2022/12/05 08:16:54;;;;;;;;;;;;;;;7.66;100.00;100683.56;5076245;28;19916;-82
2022/12/05 08:19:19;;;;;;;;;;;;;;;7.65;100.00;100676.63;5076352;28;20377;-82
2022/12/05 08:21:45;;;;;;;;;;;;;;;7.70;100.00;100675.25;5057930;28;19919;-83
2022/12/05 08:24:11;;;;;;;;;;;;;;;7.67;100.00;100675.53;5057726;28;19921;-83
2022/12/05 08:26:37;;;;;;;;;;;;;;;7.74;100.00;100684.53;5076354;28;20019;-81
2022/12/05 08:29:03;;;;;;;;;;;;;;;7.75;100.00;100683.59;5076034;28;19920;-82
2022/12/05 08:31:31;;;;;;;;;;;;;;;7.87;100.00;100686.88;5076007;28;19953;-83
2022/12/05 08:33:57;;;;;;;;;;;;;;;7.89;100.00;100673.56;5075334;28;19920;-83
2022/12/05 08:36:23;;;;;;;;;;;;;;;8.00;100.00;100676.88;5075530;28;19920;-85
2022/12/05 08:38:48;;;;;;;;;;;;;;;8.13;100.00;100681.84;5075437;28;20404;-82
2022/12/05 08:41:15;;;;;;;;;;;;;;;8.12;100.00;100685.47;5075807;28;19920;-83
2022/12/05 08:43:41;;;;;;;;;;;;;;;8.18;100.00;100695.47;5076734;28;19932;-84
2022/12/05 08:46:06;;;;;;;;;;;;;;;8.13;100.00;100697.69;5076092;28;19924;-84
2022/12/05 08:48:33;;;;;;;;;;;;;;;8.08;100.00;100702.56;5083298;28;19921;-83
2022/12/05 08:50:58;;;;;;;;;;;;;;;8.07;100.00;100711.44;5091723;28;19967;-83
2022/12/05 08:53:24;;;;;;;;;;;;;;;8.09;100.00;100712.13;5099741;28;19931;-82
2022/12/05 08:55:50;;;;;;;;;;;;;;;8.06;100.00;100707.13;5086948;28;19931;-84
2022/12/05 08:58:15;;;;;;;;;;;;;;;8.01;100.00;100699.66;5083450;28;19970;-84
2022/12/05 09:00:41;;;;;;;;;;;;;;;8.19;100.00;100695.31;5075879;28;20288;-83
2022/12/05 09:03:08;;;;;;;;;;;;;;;8.34;100.00;100703.66;5076934;28;19920;-84
2022/12/05 09:05:33;;;;;;;;;;;;;;;8.11;100.00;100704.91;5062064;28;19924;-84
2022/12/05 09:07:59;;;;;;;;;;;;;;;8.12;100.00;100702.13;5081035;28;20390;-82
2022/12/05 09:10:25;;;;;;;;;;;;;;;8.01;100.00;100714.66;5081430;28;19917;-83
2022/12/05 09:12:50;;;;;;;;;;;;;;;8.18;100.00;100700.75;5080721;28;19984;-82
2022/12/05 09:15:16;;;;;;;;;;;;;;;8.24;100.00;100705.44;5078439;28;20297;-85
2022/12/05 09:17:43;;;;;;;;;;;;;;;8.38;100.00;100718.22;5075034;28;19927;-84
2022/12/05 09:20:10;;;;;;;;;;;;;;;8.27;100.00;100716.56;5075414;28;20011;-82
2022/12/05 09:22:36;;;;;;;;;;;;;;;8.26;100.00;100688.47;5074503;28;19921;-83
2022/12/05 09:25:02;;;;;;;;;;;;;;;8.20;100.00;100689.06;5073992;28;19974;-83
2022/12/05 09:27:27;;;;;;;;;;;;;;;8.18;100.00;100684.91;5078643;28;19962;-87
2022/12/05 09:29:53;;;;;;;;;;;;;;;8.15;100.00;100683.34;5077672;28;20003;-85
2022/12/05 09:32:18;;;;;;;;;;;;;;;8.15;100.00;100685.19;5074895;28;19920;-86
2022/12/05 09:34:44;;;;;;;;;;;;;;;8.29;100.00;100682.09;5074331;28;19941;-80
2022/12/05 09:37:09;;;;;;;;;;;;;;;8.57;100.00;100683.81;5064525;28;20017;-85
2022/12/05 09:39:35;;;;;;;;;;;;;;;8.39;100.00;100684.72;5065987;28;19928;-87
2022/12/05 09:42:09;;;;;;;;;;;;;;;8.35;100.00;100681.56;5062330;28;19923;-85
2022/12/05 09:44:49;;;;;;;;;;;;;;;8.57;100.00;100686.47;5036892;28;20378;-85
2022/12/05 09:47:23;;;;;;;;;;;;;;;8.53;100.00;100695.66;5035566;28;19928;-85
2022/12/05 09:49:56;;;;;;;;;;;;;;;8.45;100.00;100678.88;5034569;28;19920;-86
2022/12/05 09:52:24;;;;;;;;;;;;;;;8.39;100.00;100687.34;5052655;28;19921;-83
2022/12/05 09:54:50;;;;;;;;;;;;;;;8.59;100.00;100689.78;5052749;28;20398;-85
2022/12/05 09:57:31;;;;;;;;;;;;;;;8.45;100.00;100687.59;5035360;28;19924;-84
2022/12/05 09:59:57;;;;;;;;;;;;;;;8.54;100.00;100684.13;5052432;28;19912;-85
2022/12/05 10:02:28;;;;;;;;;;;;;;;8.60;100.00;100672.97;5034790;28;20412;-84
2022/12/05 10:05:05;;;;;;;;;;;;;;;8.80;100.00;100687.75;5056109;28;19959;-84
2022/12/05 10:07:37;;;;;;;;;;;;;;;8.87;100.00;100687.16;5068473;28;19925;-84
2022/12/05 10:10:11;;;;;;;;;;;;;;;8.79;100.00;100672.88;5053044;28;19916;-83
2022/12/05 10:12:55;;;;;;;;;;;;;;;8.96;100.00;100670.41;5063276;28;19928;-85
2022/12/05 10:15:40;;;;;;;;;;;;;;;8.77;100.00;100666.91;5054743;28;19921;-85
2022/12/05 10:18:08;;;;;;;;;;;;;;;8.93;100.00;100676.00;5056238;28;19928;-84
2022/12/05 10:20:37;;;;;;;;;;;;;;;8.95;100.00;100668.78;5058088;28;19921;-85
2022/12/05 10:23:05;;;;;;;;;;;;;;;9.04;100.00;100667.88;5057560;28;19921;-84
2022/12/05 10:25:32;;;;;;;;;;;;;;;9.00;100.00;100667.34;5056098;28;19921;-85
2022/12/05 10:27:59;;;;;;;;;;;;;;;8.98;100.00;100656.06;5039503;28;20003;-84
2022/12/05 10:30:30;;;;;;;;;;;;;;;9.07;100.00;100641.97;5058754;28;19920;-87
2022/12/05 10:32:55;;;;;;;;;;;;;;;9.17;100.00;100637.44;5038589;28;20377;-83
2022/12/05 10:35:31;;;;;;;;;;;;;;;9.34;100.00;100633.16;5020372;28;19925;-85
2022/12/05 10:37:58;;;;;;;;;;;;;;;9.15;100.00;100634.09;5054833;28;19924;-83
2022/12/05 10:40:45;;;;;;;;;;;;;;;8.97;100.00;100643.00;5037203;28;19928;-85
2022/12/05 10:43:15;;;;;;;;;;;;;;;8.99;100.00;100625.19;5035597;28;19932;-85
2022/12/05 10:45:45;;;;;;;;;;;;;;;8.94;100.00;100630.94;5036023;28;19932;-85
2022/12/05 10:48:12;;;;;;;;;;;;;;;9.05;100.00;100628.06;5053708;28;19925;-84
2022/12/05 10:50:38;;;;;;;;;;;;;;;9.08;100.00;100621.66;5053473;28;19943;-83
2022/12/05 10:53:04;;;;;;;;;;;;;;;9.04;100.00;100620.28;5053529;28;20381;-85
2022/12/05 10:55:35;;;;;;;;;;;;;;;8.96;100.00;100620.19;5035787;28;19984;-84
2022/12/05 10:58:08;;;;;;;;;;;;;;;9.04;100.00;100622.94;5056078;28;19921;-85
2022/12/05 11:00:33;;;;;;;;;;;;;;;9.04;100.00;100620.28;5039738;28;20332;-85
2022/12/05 11:03:02;;;;;;;;;;;;;;;9.07;100.00;100620.81;5057515;28;19921;-85
2022/12/05 11:05:32;;;;;;;;;;;;;;;9.14;100.00;100631.63;5057840;28;20293;-85
2022/12/05 11:07:58;;;;;;;;;;;;;;;9.19;100.00;100637.28;5057577;28;19921;-85
2022/12/05 11:10:31;;;;;;;;;;;;;;;9.03;100.00;100626.53;5057704;28;19921;-85
2022/12/05 11:12:57;;;;;;;;;;;;;;;9.00;100.00;100626.84;5057775;28;20307;-84
2022/12/05 11:15:24;;;;;;;;;;;;;;;9.14;100.00;100615.75;5058428;28;19921;-84
2022/12/05 11:17:50;;;;;;;;;;;;;;;9.09;100.00;100613.56;5057731;28;19921;-85
2022/12/05 11:20:18;;;;;;;;;;;;;;;9.11;100.00;100616.06;5057573;28;19963;-88
2022/12/05 11:22:45;;;;;;;;;;;;;;;9.10;100.00;100606.47;5057071;28;19948;-86
2022/12/05 11:25:27;;;;;;;;;;;;;;;9.29;100.00;100608.94;5038826;28;20278;-84
2022/12/05 11:27:56;;;;;;;;;;;;;;;9.14;100.00;100599.91;5057296;28;19974;-85
2022/12/05 11:30:23;;;;;;;;;;;;;;;9.15;100.00;100604.19;5062128;28;19923;-84
2022/12/05 11:32:49;;;;;;;;;;;;;;;9.18;100.00;100607.34;5062912;28;19921;-86
2022/12/05 11:35:14;;;;;;;;;;;;;;;9.13;100.00;100603.50;5062992;28;19959;-85
2022/12/05 11:37:39;;;;;;;;;;;;;;;9.13;100.00;100598.22;5061055;28;20356;-84
2022/12/05 11:40:15;;;;;;;;;;;;;;;9.05;100.00;100596.31;5059699;28;19924;-83
2022/12/05 11:43:02;;;;;;;;;;;;;;;9.14;100.00;100590.16;5040154;28;19927;-85
2022/12/05 11:45:33;;;;;;;;;;;;;;;9.06;100.00;100586.59;5058049;28;19924;-85
2022/12/05 11:48:08;;;;;;;;;;;;;;;9.07;100.00;100580.34;5039054;28;20020;-87
2022/12/05 11:50:34;;;;;;;;;;;;;;;8.99;100.00;100586.38;5057008;28;20003;-83
2022/12/05 11:53:17;;;;;;;;;;;;;;;9.12;100.00;100588.63;5056725;28;19963;-86
2022/12/05 11:56:04;;;;;;;;;;;;;;;8.94;100.00;100578.06;5038804;28;19924;-84
2022/12/05 11:58:33;;;;;;;;;;;;;;;9.04;100.00;100578.00;5056873;28;19921;-85
2022/12/05 12:01:11;;;;;;;;;;;;;;;9.14;100.00;100589.31;5057917;28;19932;-83
2022/12/05 12:03:44;;;;;;;;;;;;;;;9.20;100.00;100572.84;5061082;28;19963;-85
2022/12/05 12:06:24;;;;;;;;;;;;;;;9.24;100.00;100574.22;5056465;28;19928;-86
2022/12/05 12:09:09;;;;;;;;;;;;;;;9.15;100.00;100580.38;5037672;28;19920;-84
2022/12/05 12:11:49;;;;;;;;;;;;;;;9.13;100.00;100571.78;5056443;28;19921;-85
2022/12/05 12:14:30;;;;;;;;;;;;;;;9.17;100.00;100583.72;5038085;28;19925;-83
2022/12/05 12:17:15;;;;;;;;;;;;;;;9.30;100.00;100594.75;5056210;28;19924;-82
2022/12/05 12:19:46;;;;;;;;;;;;;;;9.32;100.00;100582.19;5056154;28;19921;-83
2022/12/05 12:22:30;;;;;;;;;;;;;;;9.32;100.00;100563.69;5060312;28;19948;-84
2022/12/05 12:25:22;;;;;;;;;;;;;;;9.36;100.00;100567.69;5055790;28;19925;-86
2022/12/05 12:28:06;;;;;;;;;;;;;;;9.41;100.00;100575.19;5056263;28;19927;-87
2022/12/05 12:30:31;;;;;;;;;;;;;;;9.31;100.00;100581.38;5038519;28;19921;-85
2022/12/05 12:33:12;;;;;;;;;;;;;;;9.32;100.00;100583.03;5056289;28;19990;-85
2022/12/05 12:35:40;;;;;;;;;;;;;;;9.22;100.00;100566.41;5056299;28;20301;-86
2022/12/05 12:38:24;;;;;;;;;;;;;;;9.13;100.00;100580.56;5056478;28;19927;-85
2022/12/05 12:40:56;;;;;;;;;;;;;;;9.19;100.00;100572.00;5056029;28;19917;-85
2022/12/05 12:43:33;;;;;;;;;;;;;;;9.19;100.00;100572.00;5041679;28;20286;-85
2022/12/05 12:46:05;;;;;;;;;;;;;;;9.07;100.00;100575.03;5055880;28;20026;-84
2022/12/05 12:48:39;;;;;;;;;;;;;;;8.98;100.00;100560.09;5055979;28;19979;-85
2022/12/05 12:51:09;;;;;;;;;;;;;;;8.97;100.00;100563.72;5058199;28;19921;-85